createdAt,value
2018-09-21T00:01:36.709Z,3.17
2018-09-21T00:04:12.774Z,3.73
2018-09-21T00:06:54.163Z,3.67
2018-09-21T00:09:24.069Z,3.77
2018-09-21T00:11:55.448Z,3.60
2018-09-21T00:14:25.225Z,3.30
2018-09-21T00:16:56.604Z,3.73
2018-09-21T00:22:11.963Z,3.60
2018-09-21T00:24:44.483Z,3.17
2018-09-21T00:27:22.041Z,3.60
2018-09-21T00:30:11.094Z,3.87
2018-09-21T00:32:58.651Z,4.40
2018-09-21T00:35:37.063Z,4.13
2018-09-21T00:38:11.034Z,3.77
2018-09-21T00:43:59.318Z,3.43
2018-09-21T00:46:43.601Z,3.77
2018-09-21T00:49:18.770Z,3.70
2018-09-21T01:02:33.992Z,4.13
2018-09-21T01:05:14.723Z,3.80
2018-09-21T01:08:05.371Z,4.00
2018-09-21T01:24:19.405Z,3.57
2018-09-21T01:30:40.132Z,3.60
2018-09-21T01:33:46.417Z,3.87
2018-09-21T01:39:24.148Z,3.87
2018-09-21T01:41:59.882Z,4.10
2018-09-21T01:44:36.858Z,4.10
2018-09-21T01:47:09.937Z,3.83
2018-09-21T01:49:42.208Z,3.60
2018-09-21T01:52:29.428Z,3.70
2018-09-21T01:55:15.424Z,3.53
2018-09-21T01:57:49.939Z,3.77
2018-09-21T02:00:34.673Z,4.23
2018-09-21T02:03:17.521Z,4.13
2018-09-21T02:05:54.301Z,3.60
2018-09-21T02:08:30.795Z,3.50
2018-09-21T02:14:31.184Z,3.80
2018-09-21T02:18:05.591Z,4.00
2018-09-21T02:20:56.445Z,3.40
2018-09-21T02:38:31.372Z,4.00
2018-09-21T02:41:29.596Z,3.73
2018-09-21T03:09:28.329Z,3.93
2018-09-21T03:12:02.666Z,3.33
2018-09-21T03:14:33.921Z,3.50
2018-09-21T03:17:05.614Z,4.27
2018-09-21T03:19:38.046Z,3.77
2018-09-21T03:22:09.212Z,4.00
2018-09-21T03:24:38.666Z,3.27
2018-09-21T03:27:09.634Z,3.50
2018-09-21T03:29:42.072Z,4.07
2018-09-21T03:32:11.988Z,3.80
2018-09-21T03:34:42.557Z,3.77
2018-09-21T03:37:12.668Z,3.73
2018-09-21T03:39:43.846Z,4.00
2018-09-21T03:42:14.080Z,3.40
2018-09-21T03:44:46.645Z,3.67
2018-09-21T03:47:18.664Z,3.97
2018-09-21T03:49:48.904Z,3.90
2018-09-21T03:52:18.715Z,2.93
2018-09-21T03:54:53.071Z,3.87
2018-09-21T03:57:22.815Z,3.73
2018-09-21T03:59:55.866Z,3.37
2018-09-21T04:02:26.245Z,3.87
2018-09-21T04:04:58.107Z,4.00
2018-09-21T04:07:28.620Z,3.97
2018-09-21T04:09:58.652Z,3.53
2018-09-21T04:12:28.269Z,3.70
2018-09-21T04:15:00.332Z,3.43
2018-09-21T04:17:31.033Z,3.73
2018-09-21T04:20:00.264Z,3.20
2018-09-21T04:22:29.863Z,3.23
2018-09-21T04:25:00.095Z,3.50
2018-09-21T04:27:31.026Z,3.40
2018-09-21T04:30:01.529Z,4.07
2018-09-21T04:32:31.366Z,3.77
2018-09-21T04:35:02.413Z,3.30
2018-09-21T04:37:33.940Z,4.73
2018-09-21T04:40:04.066Z,3.63
2018-09-21T04:42:47.699Z,3.63
2018-09-21T04:45:17.013Z,4.03
2018-09-21T04:47:49.542Z,4.80
2018-09-21T04:50:19.201Z,5.13
2018-09-21T04:52:50.376Z,5.73
2018-09-21T04:55:19.893Z,5.77
2018-09-21T04:57:51.000Z,5.50
2018-09-21T05:00:19.643Z,6.40
2018-09-21T05:02:51.683Z,6.63
2018-09-21T05:05:25.473Z,6.60
2018-09-21T05:07:59.227Z,6.10
2018-09-21T05:10:36.434Z,5.80
2018-09-21T05:13:06.713Z,6.57
2018-09-21T05:15:35.955Z,6.30
2018-09-21T05:18:09.375Z,6.33
2018-09-21T05:20:38.100Z,5.83
2018-09-21T05:23:09.064Z,5.67
2018-09-21T05:25:38.228Z,5.70
2018-09-21T05:28:06.933Z,5.63
2018-09-21T05:30:40.444Z,5.73
2018-09-21T05:34:22.785Z,5.77
2018-09-21T05:40:04.835Z,5.50
2018-09-21T05:42:39.263Z,5.10
2018-09-21T05:45:24.446Z,6.97
2018-09-21T05:47:55.169Z,5.87
2018-09-21T05:50:24.350Z,4.10
2018-09-21T05:56:11.863Z,2.90
2018-09-21T05:58:41.910Z,3.07
2018-09-21T06:01:14.507Z,2.63
2018-09-21T06:03:58.206Z,2.83
2018-09-21T06:06:41.675Z,3.33
2018-09-21T07:23:23.160Z,1.60
2018-09-21T07:29:48.700Z,1.80
2018-09-21T07:32:29.427Z,2.00
2018-09-21T07:35:02.289Z,1.90
2018-09-21T07:37:37.061Z,2.47
2018-09-21T07:40:06.864Z,1.43
2018-09-21T07:42:35.735Z,1.70
2018-09-21T07:45:04.369Z,2.17
2018-09-21T07:47:32.957Z,1.93
2018-09-21T07:50:01.859Z,2.03
2018-09-21T07:52:31.403Z,1.83
2018-09-21T07:55:00.299Z,1.60
2018-09-21T07:57:28.775Z,2.23
2018-09-21T07:59:57.361Z,1.43
2018-09-21T08:02:27.066Z,1.80
2018-09-21T08:04:55.671Z,1.30
2018-09-21T08:07:24.691Z,1.10
2018-09-21T08:09:53.525Z,1.17
2018-09-21T08:12:22.178Z,1.27
2018-09-21T08:14:53.020Z,1.30
2018-09-21T08:17:24.026Z,1.60
2018-09-21T08:19:53.123Z,1.40
2018-09-21T08:22:22.283Z,1.23
2018-09-21T08:24:51.502Z,1.40
2018-09-21T08:27:21.599Z,1.80
2018-09-21T08:29:51.001Z,1.40
2018-09-21T08:32:57.854Z,1.60
2018-09-21T08:35:27.106Z,1.27
2018-09-21T08:37:58.434Z,1.80
2018-09-21T08:40:27.179Z,1.30
2018-09-21T08:42:57.122Z,1.57
2018-09-21T08:55:45.870Z,1.03
2018-09-21T09:11:51.679Z,1.47
2018-09-21T09:21:18.183Z,1.03
2018-09-21T09:24:12.935Z,1.33
2018-09-21T09:26:51.088Z,1.10
2018-09-21T09:35:46.950Z,0.90
2018-09-21T09:47:52.799Z,0.83
2018-09-21T09:50:28.328Z,1.23
2018-09-21T09:56:16.696Z,0.90
2018-09-21T10:10:58.425Z,1.30
2018-09-21T10:16:45.250Z,1.13
2018-09-21T10:43:53.273Z,0.80
2018-09-21T10:52:40.578Z,0.90
2018-09-21T10:55:22.405Z,1.13
2018-09-21T10:57:53.161Z,0.87
2018-09-21T11:00:21.473Z,1.00
2018-09-21T11:02:51.268Z,0.97
2018-09-21T11:05:20.455Z,1.07
2018-09-21T11:07:54.165Z,0.93
2018-09-21T11:10:23.521Z,1.30
2018-09-21T11:12:52.771Z,0.80
2018-09-21T11:19:20.100Z,0.97
2018-09-21T11:21:50.979Z,1.30
2018-09-21T11:24:20.494Z,1.60
2018-09-21T11:27:08.467Z,1.10
2018-09-21T11:29:53.095Z,1.07
2018-09-21T11:32:34.155Z,1.37
2018-09-21T11:35:03.365Z,0.80
2018-09-21T11:37:32.634Z,1.30
2018-09-21T11:40:03.660Z,1.50
2018-09-21T11:42:33.496Z,1.20
2018-09-21T11:48:17.835Z,1.07
2018-09-21T11:50:50.878Z,1.20
2018-09-21T11:56:30.257Z,1.73
2018-09-21T12:01:55.801Z,1.17
2018-09-21T12:04:26.101Z,1.73
2018-09-21T12:06:57.347Z,1.07
2018-09-21T12:09:28.039Z,1.00
2018-09-21T12:11:56.829Z,1.20
2018-09-21T12:14:25.608Z,1.30
2018-09-21T12:16:54.587Z,2.10
2018-09-21T12:19:29.345Z,1.63
2018-09-21T12:22:04.805Z,1.20
2018-09-21T12:24:33.634Z,1.07
2018-09-21T12:27:02.599Z,1.70
2018-09-21T12:29:32.076Z,2.00
2018-09-21T12:32:01.967Z,1.33
2018-09-21T12:34:33.432Z,1.70
2018-09-21T12:37:02.205Z,1.30
2018-09-21T12:39:32.646Z,1.33
2018-09-21T12:42:02.804Z,1.10
2018-09-21T12:44:35.782Z,1.60
2018-09-21T12:47:34.473Z,1.53
2018-09-21T12:50:12.850Z,1.03
2018-09-21T12:55:47.243Z,1.10
2018-09-21T12:58:18.763Z,1.03
2018-09-21T13:00:58.283Z,1.37
2018-09-21T13:03:33.855Z,1.17
2018-09-21T13:06:16.755Z,0.90
2018-09-21T13:12:03.572Z,1.50
2018-09-21T13:15:14.951Z,1.20
2018-09-21T13:17:46.423Z,1.30
2018-09-21T13:20:21.535Z,1.50
2018-09-21T13:23:00.804Z,1.50
2018-09-21T13:26:06.199Z,1.13
2018-09-21T13:28:38.258Z,1.87
2018-09-21T13:31:12.891Z,1.47
2018-09-21T13:33:41.463Z,1.43
2018-09-21T13:36:09.893Z,1.57
2018-09-21T13:38:38.396Z,1.60
2018-09-21T13:41:06.827Z,1.10
2018-09-21T13:43:35.268Z,1.17
2018-09-21T13:46:10.880Z,1.47
2018-09-21T13:51:32.186Z,1.30
2018-09-21T13:54:01.349Z,1.57
2018-09-21T13:56:30.143Z,1.97
2018-09-21T13:59:02.764Z,1.43
2018-09-21T14:01:33.113Z,1.40
2018-09-21T14:04:02.289Z,1.63
2018-09-21T14:06:31.192Z,1.53
2018-09-21T14:09:00.231Z,1.60
2018-09-21T14:11:33.561Z,1.43
2018-09-21T14:14:52.037Z,1.17
2018-09-21T14:17:25.880Z,1.27
2018-09-21T14:20:05.940Z,1.23
2018-09-21T14:22:34.334Z,1.37
2018-09-21T14:25:04.059Z,1.40
2018-09-21T14:27:32.625Z,1.57
2018-09-21T14:30:01.031Z,1.37
2018-09-21T14:32:29.479Z,1.43
2018-09-21T14:35:02.096Z,1.43
2018-09-21T14:37:30.640Z,1.20
2018-09-21T14:39:59.043Z,1.33
2018-09-21T14:42:27.493Z,1.90
2018-09-21T14:44:55.869Z,1.40
2018-09-21T14:47:24.556Z,1.30
2018-09-21T14:49:53.357Z,1.63
2018-09-21T14:52:26.202Z,1.73
2018-09-21T14:54:54.621Z,1.47
2018-09-21T14:57:23.088Z,1.30
2018-09-21T14:59:51.729Z,1.43
2018-09-21T15:02:23.358Z,1.67
2018-09-21T15:07:49.684Z,1.50
2018-09-21T15:10:17.988Z,1.40
2018-09-21T15:12:46.481Z,1.10
2018-09-21T15:15:14.991Z,1.17
2018-09-21T15:17:45.719Z,1.30
2018-09-21T15:56:53.181Z,1.20
2018-09-21T15:59:29.881Z,3.00
2018-09-21T17:27:24.933Z,2.50
2018-09-21T17:30:05.619Z,2.07
2018-09-21T17:32:34.743Z,1.80
2018-09-21T17:35:04.022Z,2.00
2018-09-21T17:37:32.727Z,2.10
2018-09-21T17:40:01.778Z,1.90
2018-09-21T17:42:30.971Z,1.73
2018-09-21T17:45:00.502Z,2.13
2018-09-21T17:47:38.676Z,1.90
2018-09-21T17:50:08.660Z,2.07
2018-09-21T17:52:38.156Z,1.70
2018-09-21T17:55:06.610Z,2.40
2018-09-21T17:57:38.003Z,2.73
2018-09-21T18:03:11.887Z,2.07
2018-09-21T18:08:52.424Z,1.00
2018-09-21T18:14:28.174Z,1.40
2018-09-21T18:17:00.460Z,2.27
2018-09-21T19:35:28.573Z,2.00
2018-09-21T19:38:21.044Z,2.50
2018-09-21T19:40:51.193Z,2.33
2018-09-21T19:43:29.596Z,2.40
2018-09-21T19:46:06.465Z,2.90
2018-09-21T19:48:36.020Z,3.27
2018-09-21T19:51:41.894Z,1.60
2018-09-21T19:54:13.475Z,1.80
2018-09-21T19:56:43.789Z,1.90
2018-09-21T19:59:13.193Z,2.00
2018-09-21T20:01:42.029Z,1.50
2018-09-21T20:04:12.748Z,1.60
2018-09-21T20:06:41.975Z,1.50
2018-09-21T20:09:16.445Z,1.33
2018-09-21T20:11:46.990Z,1.57
2018-09-21T20:14:16.846Z,1.80
2018-09-21T20:16:47.167Z,1.60
2018-09-21T20:22:00.330Z,1.57
2018-09-21T20:30:52.610Z,2.60
2018-09-21T20:41:02.352Z,0.97
2018-09-21T20:43:45.021Z,1.40
2018-09-21T20:49:05.816Z,1.37
2018-09-21T20:51:50.667Z,1.83
2018-09-21T20:54:24.138Z,1.63
2018-09-21T20:56:56.601Z,1.60
2018-09-21T21:05:35.954Z,1.40
2018-09-21T21:08:24.145Z,1.50
2018-09-21T21:11:06.126Z,1.97
2018-09-21T21:13:37.969Z,1.43
2018-09-21T21:21:57.829Z,1.30
2018-09-21T21:24:31.654Z,1.30
2018-09-21T21:33:07.381Z,1.83
2018-09-21T21:38:51.102Z,2.20
2018-09-21T21:41:26.058Z,1.80
2018-09-21T21:43:58.575Z,1.40
2018-09-21T21:49:34.136Z,1.40
2018-09-21T21:56:30.850Z,1.80
2018-09-21T22:02:12.811Z,1.43
2018-09-21T22:04:47.802Z,1.60
2018-09-21T22:07:32.463Z,1.30
2018-09-21T22:10:09.860Z,1.90
2018-09-21T22:12:46.726Z,1.87
2018-09-21T22:15:21.965Z,1.50
2018-09-21T22:20:50.398Z,1.20
2018-09-21T22:23:35.763Z,1.20
2018-09-21T22:26:18.268Z,1.20
2018-09-21T22:28:59.741Z,1.53
2018-09-21T22:31:32.354Z,1.43
2018-09-21T22:34:05.322Z,1.47
2018-09-21T22:36:35.696Z,1.53
2018-09-21T22:39:19.645Z,1.80
2018-09-21T22:41:49.285Z,1.53
2018-09-21T22:44:20.951Z,1.40
2018-09-21T22:46:51.469Z,1.57
2018-09-21T22:49:25.635Z,1.47
2018-09-21T22:51:59.082Z,1.63
2018-09-21T22:58:07.114Z,1.40
2018-09-21T23:00:45.876Z,1.50
2018-09-21T23:03:29.791Z,1.50
2018-09-21T23:06:01.656Z,1.60
2018-09-21T23:11:10.813Z,1.60
2018-09-21T23:20:03.133Z,1.93
2018-09-21T23:22:42.465Z,1.87
2018-09-21T23:25:32.863Z,1.70
2018-09-21T23:28:10.504Z,1.90
2018-09-21T23:30:43.637Z,1.53
2018-09-21T23:33:20.136Z,1.43
2018-09-21T23:36:02.132Z,1.40
2018-09-21T23:38:34.452Z,1.03
2018-09-21T23:41:14.658Z,1.47
2018-09-21T23:43:53.168Z,1.30
2018-09-21T23:46:27.656Z,1.90
2018-09-21T23:48:57.149Z,1.47
2018-09-21T23:51:29.354Z,1.50
